Time;durP1;ratioP1;P1;durP2;ratioP2;P2;SDS_P1;SDS_P2;PMS_P1;PMS_P2;Temp;Humidity;BMP_temperature;BMP_pressure;BME280_temperature;BME280_humidity;BME280_pressure;Samples;Min_cycle;Max_cycle;Signal;HPM_P1;HPM_P2
2022/04/07 00:01:09;;;;;;;5.57;5.10;;;;;;;11.50;66.68;98672.59;5131605;27;20197;-51
2022/04/07 00:03:36;;;;;;;4.73;4.43;;;;;;;11.38;67.01;98675.75;5131419;27;20190;-51
2022/04/07 00:06:09;;;;;;;5.10;4.60;;;;;;;11.38;67.06;98667.09;5131439;27;20581;-53
2022/04/07 00:08:35;;;;;;;6.17;4.87;;;;;;;11.37;65.83;98661.06;5131331;27;20201;-52
2022/04/07 00:11:03;;;;;;;5.57;5.07;;;;;;;11.35;66.00;98654.25;5131409;27;20222;-52
2022/04/07 00:13:30;;;;;;;5.30;4.90;;;;;;;11.35;65.95;98655.09;5131320;27;20281;-52
2022/04/07 00:15:59;;;;;;;5.33;5.03;;;;;;;11.21;66.38;98652.25;5131665;27;20197;-50
2022/04/07 00:18:27;;;;;;;5.70;5.20;;;;;;;11.25;66.61;98651.22;5131339;27;20277;-52
2022/04/07 00:20:54;;;;;;;5.60;5.10;;;;;;;11.23;66.57;98645.25;5131331;27;20200;-53
2022/04/07 00:23:22;;;;;;;6.40;5.63;;;;;;;11.23;66.83;98658.25;5131298;27;20194;-53
2022/04/07 00:25:49;;;;;;;5.87;5.27;;;;;;;11.18;66.59;98640.25;5130889;27;20324;-52
2022/04/07 00:28:17;;;;;;;6.13;5.50;;;;;;;11.16;66.67;98657.69;5131187;27;20194;-53
2022/04/07 00:30:44;;;;;;;5.53;5.03;;;;;;;11.16;66.76;98667.22;5131100;27;20228;-53
2022/04/07 00:33:11;;;;;;;6.60;5.53;;;;;;;11.13;67.06;98667.34;5130956;27;20246;-52
2022/04/07 00:35:40;;;;;;;7.87;5.80;;;;;;;11.20;66.28;98679.16;5131165;27;20200;-54
2022/04/07 00:38:06;;;;;;;5.60;5.10;;;;;;;11.17;66.35;98668.91;5131220;27;20560;-53
2022/04/07 00:40:33;;;;;;;5.87;5.27;;;;;;;11.19;66.21;98656.69;5130904;27;20193;-53
2022/04/07 00:43:00;;;;;;;6.50;5.30;;;;;;;11.08;66.53;98643.31;5131221;27;20219;-52
2022/04/07 00:45:27;;;;;;;8.23;6.07;;;;;;;11.06;67.24;98630.41;5130856;28;20198;-52
2022/04/07 00:47:54;;;;;;;6.10;5.13;;;;;;;11.12;67.09;98639.69;5130809;28;20201;-53
2022/04/07 00:50:21;;;;;;;8.43;6.00;;;;;;;11.07;66.96;98624.31;5130892;28;20236;-53
2022/04/07 00:52:53;;;;;;;7.67;5.60;;;;;;;11.04;67.22;98621.03;5130766;28;20202;-53
2022/04/07 00:55:20;;;;;;;6.20;5.60;;;;;;;11.09;67.12;98629.44;5130836;28;20584;-53
2022/04/07 00:57:48;;;;;;;6.90;6.27;;;;;;;10.99;66.48;98633.34;5130891;28;20200;-51
2022/04/07 01:00:15;;;;;;;7.07;5.80;;;;;;;10.85;67.54;98632.22;5130350;28;20190;-52
2022/04/07 01:02:43;;;;;;;6.90;6.30;;;;;;;10.74;67.41;98621.44;5131068;28;20591;-52
2022/04/07 01:05:12;;;;;;;8.03;6.53;;;;;;;10.79;67.99;98629.06;5130988;28;20588;-53
2022/04/07 01:07:39;;;;;;;7.27;6.40;;;;;;;10.78;68.21;98624.78;5130827;28;20197;-53
2022/04/07 01:10:09;;;;;;;8.83;6.47;;;;;;;10.73;68.54;98618.91;5130739;28;20312;-53
2022/04/07 01:12:38;;;;;;;6.43;5.90;;;;;;;10.63;69.10;98623.69;5130305;28;20198;-53
2022/04/07 01:15:07;;;;;;;7.20;6.50;;;;;;;10.64;68.65;98620.16;5130499;28;20198;-53
2022/04/07 01:17:35;;;;;;;7.47;6.37;;;;;;;10.64;69.25;98614.97;5130642;28;20280;-52
2022/04/07 01:20:03;;;;;;;8.70;6.70;;;;;;;10.76;68.28;98621.41;5130852;28;20232;-52
2022/04/07 01:22:31;;;;;;;10.33;6.60;;;;;;;10.81;68.10;98622.91;5130753;28;20194;-50
2022/04/07 01:25:00;;;;;;;6.33;5.77;;;;;;;10.64;68.97;98619.31;5130734;28;20237;-54
2022/04/07 01:27:27;;;;;;;6.90;6.30;;;;;;;10.68;68.29;98616.53;5130257;28;20240;-53
2022/04/07 01:29:54;;;;;;;8.70;6.67;;;;;;;10.82;67.96;98619.38;5130442;28;20202;-53
2022/04/07 01:32:31;;;;;;;9.47;6.90;;;;;;;10.79;67.74;98619.50;5130307;28;20204;-52
2022/04/07 01:34:59;;;;;;;8.87;7.13;;;;;;;10.78;67.50;98607.44;5130438;28;20194;-53
2022/04/07 01:37:26;;;;;;;9.27;7.00;;;;;;;10.70;67.50;98586.19;5130414;28;20636;-52
2022/04/07 01:39:54;;;;;;;7.43;6.90;;;;;;;10.67;67.84;98599.28;5130395;28;20201;-52
2022/04/07 01:42:23;;;;;;;15.27;10.27;;;;;;;10.55;67.87;98594.63;5130253;28;20281;-52
2022/04/07 01:44:53;;;;;;;10.20;7.40;;;;;;;10.54;68.38;98593.78;5130366;28;20200;-53
2022/04/07 01:47:22;;;;;;;11.27;8.07;;;;;;;10.51;68.44;98574.91;5130341;28;20581;-54
2022/04/07 01:49:58;;;;;;;7.63;6.97;;;;;;;10.39;69.37;98563.31;5130181;28;20198;-53
2022/04/07 01:52:25;;;;;;;8.30;7.60;;;;;;;10.33;69.78;98560.16;5130040;27;20193;-53
2022/04/07 01:54:53;;;;;;;9.10;8.00;;;;;;;10.32;70.47;98555.88;5134048;27;20666;-52
2022/04/07 01:57:24;;;;;;;7.90;7.10;;;;;;;10.34;70.55;98549.72;5133941;27;20608;-52
2022/04/07 01:59:51;;;;;;;8.90;8.10;;;;;;;10.37;70.36;98551.34;5134063;27;20690;-52
2022/04/07 02:02:18;;;;;;;10.43;8.20;;;;;;;10.33;70.38;98542.84;5133788;27;20725;-52
2022/04/07 02:04:55;;;;;;;9.00;8.17;;;;;;;10.23;71.48;98532.94;5133731;27;20190;-52
2022/04/07 02:07:22;;;;;;;8.33;7.60;;;;;;;10.27;71.19;98545.69;5133574;27;20197;-53
2022/04/07 02:09:49;;;;;;;8.77;8.07;;;;;;;10.26;71.41;98549.22;5121601;27;20191;-53
2022/04/07 02:12:20;;;;;;;9.73;8.03;;;;;;;10.18;71.25;98541.72;5112548;28;20671;-53
2022/04/07 02:14:48;;;;;;;8.50;7.57;;;;;;;10.16;71.16;98522.78;5112657;28;20604;-53
2022/04/07 02:17:20;;;;;;;11.67;8.57;;;;;;;10.14;71.35;98529.78;5112336;28;20198;-53
2022/04/07 02:19:50;;;;;;;9.83;8.83;;;;;;;10.03;71.58;98523.38;5112689;28;20194;-53
2022/04/07 02:22:17;;;;;;;9.53;8.60;;;;;;;10.04;71.61;98518.13;5112351;28;20674;-54
2022/04/07 02:24:44;;;;;;;9.87;8.97;;;;;;;9.84;73.44;98499.97;5112453;28;20650;-53
2022/04/07 02:27:12;;;;;;;9.23;8.30;;;;;;;9.80;73.99;98501.03;5112355;28;20226;-53
2022/04/07 02:29:38;;;;;;;9.87;8.77;;;;;;;9.88;73.59;98490.31;5112675;28;20588;-53
2022/04/07 02:32:08;;;;;;;10.43;8.93;;;;;;;9.92;73.82;98482.38;5112773;28;20226;-51
2022/04/07 02:34:36;;;;;;;10.23;9.03;;;;;;;9.96;73.47;98483.06;5112695;28;20195;-53
2022/04/07 02:37:03;;;;;;;11.83;9.57;;;;;;;10.02;73.20;98496.63;5112930;28;20689;-52
2022/04/07 02:39:30;;;;;;;11.37;9.60;;;;;;;9.99;73.76;98493.31;5112505;28;20201;-51
2022/04/07 02:41:57;;;;;;;13.63;9.10;;;;;;;10.00;74.22;98485.47;5112679;28;20205;-52
2022/04/07 02:44:24;;;;;;;10.20;9.20;;;;;;;10.03;73.87;98482.75;5112366;28;20194;-52
2022/04/07 02:46:51;;;;;;;10.90;9.43;;;;;;;10.08;73.36;98483.38;5112591;28;20613;-53
2022/04/07 02:49:19;;;;;;;10.13;9.20;;;;;;;10.17;73.24;98484.72;5112451;28;20208;-51
2022/04/07 02:51:46;;;;;;;10.03;9.13;;;;;;;10.16;72.84;98476.09;5112627;28;20222;-52
2022/04/07 02:54:13;;;;;;;10.57;9.43;;;;;;;10.04;74.01;98475.81;5112297;28;20289;-52
2022/04/07 02:56:40;;;;;;;9.20;8.40;;;;;;;9.96;73.48;98463.16;5112124;28;20195;-52
2022/04/07 02:59:07;;;;;;;9.83;8.60;;;;;;;9.81;75.11;98456.06;5112270;28;20200;-52
2022/04/07 03:01:34;;;;;;;10.70;9.60;;;;;;;9.89;74.81;98458.31;5112001;28;20282;-52
2022/04/07 03:04:01;;;;;;;10.93;9.13;;;;;;;9.89;74.93;98471.28;5111716;28;20248;-51
2022/04/07 03:06:30;;;;;;;12.63;8.53;;;;;;;9.85;74.63;98475.75;5107328;27;20222;-51
2022/04/07 03:08:57;;;;;;;9.80;8.63;;;;;;;9.80;75.53;98472.53;5111615;28;20222;-53
2022/04/07 03:11:24;;;;;;;9.80;8.23;;;;;;;9.84;76.03;98474.06;5110660;27;20227;-54
2022/04/07 03:13:51;;;;;;;11.17;9.23;;;;;;;9.86;75.55;98463.63;5111502;28;20312;-53
2022/04/07 03:16:18;;;;;;;9.43;8.50;;;;;;;9.93;74.31;98452.09;5111227;27;20222;-51
2022/04/07 03:18:46;;;;;;;8.87;8.07;;;;;;;9.87;75.45;98427.28;5119031;27;20226;-52
2022/04/07 03:21:13;;;;;;;10.73;8.90;;;;;;;9.77;75.72;98420.81;5119959;27;20784;-53
2022/04/07 03:23:41;;;;;;;9.63;8.60;;;;;;;9.46;75.85;98385.03;5119355;27;20225;-52
2022/04/07 03:26:08;;;;;;;10.27;9.03;;;;;;;9.79;76.49;98439.72;5115778;27;20226;-52
2022/04/07 03:28:35;;;;;;;13.03;9.00;;;;;;;9.80;76.47;98447.44;5120126;27;20293;-53
2022/04/07 03:31:02;;;;;;;11.53;8.43;;;;;;;9.84;75.97;98442.94;5118146;27;20448;-53
2022/04/07 03:33:29;;;;;;;9.37;8.43;;;;;;;9.75;76.23;98444.19;5114454;27;20222;-52
2022/04/07 03:35:57;;;;;;;9.80;8.80;;;;;;;9.77;76.71;98451.91;5118074;27;20217;-52
2022/04/07 03:38:24;;;;;;;11.00;8.83;;;;;;;9.79;76.61;98450.94;5103521;27;20695;-52
2022/04/07 03:40:53;;;;;;;10.00;9.00;;;;;;;9.75;76.98;98444.19;5099185;27;20221;-51
2022/04/07 03:43:20;;;;;;;11.80;8.73;;;;;;;9.78;76.27;98427.69;5107089;27;20227;-51
2022/04/07 03:45:46;;;;;;;9.60;8.47;;;;;;;9.72;77.02;98427.94;5119399;27;20264;-52
2022/04/07 03:48:13;;;;;;;10.50;9.13;;;;;;;9.67;77.58;98424.72;5118649;27;20221;-52
2022/04/07 03:50:40;;;;;;;10.37;9.37;;;;;;;9.66;77.14;98431.63;5116994;27;20285;-50
2022/04/07 03:53:07;;;;;;;9.77;8.87;;;;;;;9.73;77.74;98427.88;5121074;27;20197;-53
2022/04/07 03:55:35;;;;;;;12.90;9.57;;;;;;;9.77;77.38;98432.03;5120738;27;20201;-52
2022/04/07 03:58:03;;;;;;;12.00;9.33;;;;;;;9.67;77.38;98411.75;5120704;27;20194;-53
2022/04/07 04:00:30;;;;;;;10.57;9.47;;;;;;;9.72;76.70;98383.88;5116734;27;20522;-52
2022/04/07 04:02:57;;;;;;;17.87;9.17;;;;;;;9.82;76.61;98391.19;5119630;27;20190;-51
2022/04/07 04:05:24;;;;;;;17.53;9.70;;;;;;;9.76;77.59;98383.69;5120733;27;20204;-49
2022/04/07 04:07:51;;;;;;;15.27;10.37;;;;;;;9.77;78.47;98384.53;5119042;27;20194;-52
2022/04/07 04:10:18;;;;;;;12.23;10.10;;;;;;;9.83;80.12;98385.09;5119378;27;20194;-52
2022/04/07 04:12:45;;;;;;;16.77;11.30;;;;;;;9.82;77.85;98382.56;5120801;27;20217;-51
2022/04/07 04:15:14;;;;;;;15.83;10.13;;;;;;;9.76;77.85;98377.66;5117879;27;20198;-52
2022/04/07 04:17:41;;;;;;;17.77;11.07;;;;;;;9.79;77.38;98370.63;5110958;27;20217;-52
2022/04/07 04:20:08;;;;;;;13.83;11.17;;;;;;;9.84;79.30;98388.53;5130349;27;20198;-52
2022/04/07 04:22:36;;;;;;;11.17;10.07;;;;;;;9.72;77.78;98392.50;5112872;27;20191;-52
2022/04/07 04:25:03;;;;;;;20.13;11.50;;;;;;;9.94;81.63;98397.59;5110443;28;20649;-52
2022/04/07 04:27:30;;;;;;;10.90;9.77;;;;;;;9.97;77.33;98386.25;5110600;28;20242;-53
2022/04/07 04:29:57;;;;;;;15.23;10.43;;;;;;;9.96;75.85;98381.97;5112883;27;20202;-52
2022/04/07 04:32:25;;;;;;;11.83;9.73;;;;;;;9.90;75.16;98390.88;5119266;27;20229;-53
2022/04/07 04:34:52;;;;;;;11.63;10.30;;;;;;;9.95;75.15;98390.66;5119402;27;20201;-53
2022/04/07 04:37:21;;;;;;;12.93;10.67;;;;;;;9.92;74.46;98386.47;5121064;27;20196;-54
2022/04/07 04:39:48;;;;;;;14.17;11.63;;;;;;;9.95;74.03;98388.06;5110288;27;20224;-51
2022/04/07 04:42:15;;;;;;;16.20;12.17;;;;;;;9.91;75.42;98386.53;5089469;28;20231;-53
2022/04/07 04:44:41;;;;;;;19.20;12.23;;;;;;;9.98;75.03;98385.34;5089629;28;20223;-52
2022/04/07 04:47:08;;;;;;;14.27;10.67;;;;;;;9.99;74.42;98393.06;5088950;28;20219;-51
2022/04/07 04:49:40;;;;;;;14.50;10.97;;;;;;;10.01;73.58;98367.06;5089828;28;20227;-53
2022/04/07 04:52:08;;;;;;;11.50;10.30;;;;;;;10.21;73.03;98367.03;5089282;28;20321;-52
2022/04/07 04:54:35;;;;;;;16.77;10.13;;;;;;;10.39;71.37;98381.75;5089506;28;20227;-53
2022/04/07 04:57:02;;;;;;;13.60;10.20;;;;;;;10.62;70.05;98385.03;5101936;27;20218;-53
2022/04/07 04:59:28;;;;;;;10.90;9.80;;;;;;;10.85;69.31;98398.59;5112749;28;20261;-53
2022/04/07 05:01:55;;;;;;;13.73;10.40;;;;;;;10.98;67.80;98388.47;5108881;28;20612;-52
2022/04/07 05:04:22;;;;;;;11.27;10.27;;;;;;;11.01;67.57;98398.72;5109721;28;20222;-52
2022/04/07 05:06:51;;;;;;;14.40;10.30;;;;;;;11.23;67.04;98390.72;5109978;28;20216;-52
2022/04/07 05:09:18;;;;;;;14.13;11.53;;;;;;;11.23;66.80;98372.53;5110041;28;20194;-52
2022/04/07 05:11:45;;;;;;;12.97;10.80;;;;;;;11.33;65.86;98358.16;5110020;28;20309;-53
2022/04/07 05:14:12;;;;;;;17.63;10.67;;;;;;;11.37;65.03;98367.50;5110060;28;20214;-51
2022/04/07 05:16:39;;;;;;;14.90;10.90;;;;;;;11.47;64.75;98378.25;5109766;28;20603;-52
2022/04/07 05:19:06;;;;;;;15.33;10.83;;;;;;;11.53;64.29;98383.97;5109998;28;20198;-52
2022/04/07 05:21:33;;;;;;;14.83;11.20;;;;;;;11.80;63.13;98375.72;5110039;28;20580;-53
2022/04/07 05:24:02;;;;;;;15.70;11.00;;;;;;;11.90;62.71;98375.16;5110388;28;20281;-52
2022/04/07 05:26:30;;;;;;;12.43;10.90;;;;;;;12.14;61.94;98370.44;5118171;28;20309;-53
2022/04/07 05:28:57;;;;;;;18.23;11.00;;;;;;;12.19;61.09;98380.59;5112123;28;20198;-51
2022/04/07 05:31:24;;;;;;;15.23;11.50;;;;;;;12.09;61.43;98374.19;5113863;28;20660;-51
2022/04/07 05:33:50;;;;;;;18.93;11.50;;;;;;;11.87;61.47;98359.72;5114426;28;20217;-52
2022/04/07 05:36:17;;;;;;;16.27;11.73;;;;;;;11.43;62.88;98337.75;5114432;28;20201;-52
2022/04/07 05:38:44;;;;;;;17.73;12.20;;;;;;;11.30;63.62;98337.53;5114511;28;20255;-52
2022/04/07 05:41:13;;;;;;;18.30;12.03;;;;;;;11.24;64.36;98348.25;5114472;28;20201;-52
2022/04/07 05:43:39;;;;;;;14.23;11.50;;;;;;;11.03;64.82;98312.97;5113334;28;20285;-51
2022/04/07 05:46:06;;;;;;;14.63;11.37;;;;;;;11.02;65.68;98324.25;5113766;28;20205;-51
2022/04/07 05:48:33;;;;;;;16.37;12.23;;;;;;;10.86;68.33;98324.16;5113583;28;20204;-53
2022/04/07 05:51:00;;;;;;;14.03;11.43;;;;;;;10.93;67.74;98327.31;5113550;28;20201;-51
2022/04/07 05:53:27;;;;;;;13.33;11.37;;;;;;;10.87;70.51;98312.88;5113246;28;20222;-51
2022/04/07 05:55:54;;;;;;;14.33;11.33;;;;;;;10.88;68.85;98310.19;5113389;28;20281;-51
2022/04/07 05:58:23;;;;;;;15.20;11.73;;;;;;;10.88;70.42;98304.16;5113099;28;20282;-52
2022/04/07 06:00:50;;;;;;;14.83;11.37;;;;;;;10.97;69.46;98287.28;5113515;28;20195;-52
2022/04/07 06:03:16;;;;;;;16.90;11.40;;;;;;;11.02;69.49;98267.97;5113616;28;20274;-52
2022/04/07 06:05:43;;;;;;;19.63;11.77;;;;;;;11.10;67.77;98290.94;5113312;28;20216;-51
2022/04/07 06:08:10;;;;;;;14.80;10.97;;;;;;;11.20;66.53;98284.38;5113259;28;20327;-53
2022/04/07 06:10:38;;;;;;;17.03;11.23;;;;;;;11.20;66.01;98295.59;5113488;28;20285;-53
2022/04/07 06:13:05;;;;;;;14.33;11.57;;;;;;;11.35;66.63;98299.19;5114051;28;20218;-52
2022/04/07 06:15:33;;;;;;;17.13;11.90;;;;;;;11.40;64.89;98293.78;5113609;28;20198;-51
2022/04/07 06:18:00;;;;;;;19.87;13.13;;;;;;;11.47;65.91;98289.91;5113831;28;20197;-52
2022/04/07 06:20:27;;;;;;;17.73;13.70;;;;;;;11.71;64.96;98277.41;5113704;28;20626;-51
2022/04/07 06:22:54;;;;;;;18.23;12.00;;;;;;;11.88;63.15;98279.97;5113640;28;20198;-51
2022/04/07 06:25:21;;;;;;;21.00;12.10;;;;;;;11.86;63.12;98279.19;5112970;28;20204;-51
2022/04/07 06:27:48;;;;;;;15.07;11.17;;;;;;;11.97;62.00;98277.69;5112698;28;20208;-52
2022/04/07 06:30:17;;;;;;;16.40;11.10;;;;;;;11.85;62.39;98267.16;5112846;28;20195;-51
2022/04/07 06:32:46;;;;;;;14.23;11.93;;;;;;;11.64;62.48;98263.88;5112454;28;20219;-50
2022/04/07 06:35:16;;;;;;;15.23;12.23;;;;;;;11.54;63.25;98275.69;5112644;28;20252;-51
2022/04/07 06:37:49;;;;;;;20.63;14.20;;;;;;;11.53;62.81;98267.03;5111997;28;20282;-52
2022/04/07 06:40:19;;;;;;;21.07;13.63;;;;;;;11.63;63.21;98246.59;5111416;28;20199;-52
2022/04/07 06:42:46;;;;;;;16.33;13.00;;;;;;;11.92;62.07;98252.88;5112747;28;20198;-51
2022/04/07 06:45:13;;;;;;;22.83;13.03;;;;;;;12.41;60.54;98245.81;5112629;28;20213;-53
2022/04/07 06:47:40;;;;;;;18.97;13.37;;;;;;;13.28;57.77;98249.41;5112304;28;20198;-52
2022/04/07 06:50:11;;;;;;;15.27;12.37;;;;;;;14.12;54.56;98244.22;5112282;28;20187;-52
2022/04/07 06:52:38;;;;;;;16.43;12.47;;;;;;;15.11;51.58;98243.81;5112014;28;20226;-51
2022/04/07 06:55:06;;;;;;;18.70;11.57;;;;;;;15.80;50.38;98242.53;5112478;28;20301;-52
2022/04/07 06:57:47;;;;;;;18.30;11.83;;;;;;;16.33;47.73;98241.34;5112344;28;20190;-52
2022/04/07 07:00:15;;;;;;;14.80;10.73;;;;;;;16.13;47.99;98235.88;5112119;28;20205;-52
2022/04/07 07:02:42;;;;;;;14.37;11.30;;;;;;;15.94;48.32;98239.78;5111856;28;20201;-52
2022/04/07 07:05:10;;;;;;;15.33;11.33;;;;;;;16.49;47.68;98220.09;5112214;28;20195;-52
2022/04/07 07:07:37;;;;;;;13.83;12.43;;;;;;;17.04;45.36;98223.91;5111999;28;20201;-52
2022/04/07 07:10:05;;;;;;;18.30;12.67;;;;;;;17.59;44.10;98217.03;5112312;28;20674;-50
2022/04/07 07:12:32;;;;;;;17.87;12.30;;;;;;;17.86;43.70;98214.88;5111810;28;20214;-52
2022/04/07 07:14:59;;;;;;;15.40;13.17;;;;;;;18.14;42.58;98203.88;5112094;28;20202;-52
2022/04/07 07:17:25;;;;;;;17.23;12.57;;;;;;;18.25;42.20;98189.88;5112305;28;20201;-53
2022/04/07 07:19:52;;;;;;;13.27;11.87;;;;;;;18.57;41.47;98192.50;5111959;28;20591;-52
2022/04/07 07:22:21;;;;;;;12.30;11.20;;;;;;;18.06;41.94;98152.91;5113404;27;20282;-51
2022/04/07 07:24:48;;;;;;;19.20;12.03;;;;;;;18.26;42.15;98198.59;5111702;28;20230;-53
2022/04/07 07:27:15;;;;;;;13.90;12.10;;;;;;;18.96;40.69;98209.38;5111540;28;20263;-52
2022/04/07 07:29:42;;;;;;;17.93;12.50;;;;;;;19.19;39.58;98197.75;5111364;28;20198;-51
2022/04/07 07:32:09;;;;;;;13.50;12.10;;;;;;;19.23;39.81;98190.47;5118766;27;20214;-52
2022/04/07 07:34:36;;;;;;;13.30;12.00;;;;;;;19.80;38.56;98197.78;5117429;27;20395;-52
2022/04/07 07:37:03;;;;;;;13.37;11.83;;;;;;;19.20;39.38;98193.34;5111625;28;20201;-52
2022/04/07 07:39:32;;;;;;;15.17;11.60;;;;;;;18.65;40.25;98182.19;5111416;28;20197;-52
2022/04/07 07:41:58;;;;;;;13.37;11.43;;;;;;;19.12;39.85;98164.22;5111391;28;20204;-53
2022/04/07 07:44:25;;;;;;;14.67;12.00;;;;;;;19.50;39.13;98180.25;5111182;28;20195;-53
2022/04/07 07:46:52;;;;;;;14.07;12.25;;;;;;;19.81;38.53;98173.13;5111539;28;20194;-52
2022/04/07 07:49:19;;;;;;;13.20;11.27;;;;;;;20.10;36.91;98167.91;5111254;28;20286;-52
2022/04/07 07:51:47;;;;;;;12.88;11.57;;;;;;;20.42;37.00;98172.16;5110789;28;20194;-52
2022/04/07 07:54:15;;;;;;;15.73;12.45;;;;;;;20.13;37.66;98177.34;5111233;28;20198;-52
2022/04/07 07:56:43;;;;;;;14.10;12.65;;;;;;;20.72;36.83;98173.78;5111006;28;20198;-51
2022/04/07 07:59:10;;;;;;;14.15;11.93;;;;;;;21.31;35.70;98166.47;5110994;28;20556;-52
2022/04/07 08:01:37;;;;;;;15.18;12.00;;;;;;;21.38;35.35;98166.72;5111027;28;20221;-51
2022/04/07 08:04:04;;;;;;;16.83;11.23;;;;;;;21.55;35.05;98165.97;5111003;28;20194;-52
2022/04/07 08:06:32;;;;;;;14.35;11.55;;;;;;;20.84;36.42;98157.69;5110722;28;20308;-51
2022/04/07 08:08:59;;;;;;;13.23;11.38;;;;;;;20.29;37.14;98160.03;5110868;28;20248;-52
2022/04/07 08:11:26;;;;;;;14.48;12.82;;;;;;;20.03;37.68;98151.00;5110801;28;20203;-52
2022/04/07 08:13:55;;;;;;;13.23;11.95;;;;;;;19.65;38.44;98143.00;5111153;28;20647;-52
2022/04/07 08:16:22;;;;;;;14.95;12.43;;;;;;;19.23;38.95;98143.94;5111081;28;20642;-52
2022/04/07 08:18:48;;;;;;;15.30;12.80;;;;;;;18.60;39.88;98150.22;5110591;28;20205;-53
2022/04/07 08:21:15;;;;;;;13.15;11.85;;;;;;;18.22;40.45;98145.47;5110770;28;20388;-53
2022/04/07 08:23:42;;;;;;;12.53;11.33;;;;;;;17.63;42.14;98140.59;5111042;28;20620;-52
2022/04/07 08:26:09;;;;;;;14.27;12.43;;;;;;;17.22;42.67;98141.22;5110344;28;20237;-53
2022/04/07 08:28:36;;;;;;;15.87;12.03;;;;;;;17.16;43.07;98136.41;5110445;28;20190;-52
2022/04/07 08:31:04;;;;;;;15.73;11.63;;;;;;;16.99;43.86;98124.63;5110845;28;20588;-53
2022/04/07 08:33:31;;;;;;;15.17;12.27;;;;;;;16.92;44.21;98120.00;5113202;27;20210;-51
2022/04/07 08:35:58;;;;;;;14.43;12.47;;;;;;;16.50;45.02;98122.25;5120650;27;20201;-52
2022/04/07 08:38:25;;;;;;;14.97;12.50;;;;;;;16.50;44.93;98117.00;5119237;27;20694;-53
2022/04/07 08:40:52;;;;;;;13.70;12.20;;;;;;;16.68;44.48;98110.44;5119913;27;20289;-52
2022/04/07 08:43:19;;;;;;;13.77;12.27;;;;;;;16.90;44.26;98093.91;5121065;27;20609;-54
2022/04/07 08:45:47;;;;;;;14.17;11.97;;;;;;;17.09;44.17;98090.66;5111543;27;20212;-53
2022/04/07 08:48:16;;;;;;;15.53;12.10;;;;;;;17.12;44.22;98082.56;5116187;28;20199;-53
2022/04/07 08:50:46;;;;;;;15.43;12.77;;;;;;;16.67;44.94;98072.06;5118103;28;20191;-52
2022/04/07 08:53:14;;;;;;;17.90;12.67;;;;;;;16.27;46.14;98052.44;5119229;28;20205;-54
2022/04/07 08:55:41;;;;;;;17.03;12.83;;;;;;;16.02;46.52;98047.38;5120285;28;20198;-53
2022/04/07 08:58:10;;;;;;;15.37;12.67;;;;;;;15.88;47.16;98043.16;5112835;28;20671;-53
2022/04/07 09:00:37;;;;;;;14.97;13.47;;;;;;;15.93;47.22;98028.78;5110412;28;20263;-54
2022/04/07 09:03:04;;;;;;;21.27;14.07;;;;;;;15.78;47.80;98013.41;5112996;28;20190;-52
2022/04/07 09:05:32;;;;;;;15.00;13.17;;;;;;;15.47;48.56;97994.66;5114379;28;20194;-52
2022/04/07 09:07:59;;;;;;;16.10;13.27;;;;;;;15.49;48.85;97995.41;5114213;28;20194;-53
2022/04/07 09:10:28;;;;;;;13.60;12.30;;;;;;;15.45;48.28;97990.53;5114524;28;20707;-53
2022/04/07 09:12:55;;;;;;;16.93;12.37;;;;;;;15.44;48.71;97984.44;5114315;28;20218;-53
2022/04/07 09:15:22;;;;;;;14.13;11.87;;;;;;;15.39;49.19;97985.72;5114317;28;20205;-53
2022/04/07 09:17:51;;;;;;;15.43;11.63;;;;;;;15.44;49.00;97983.63;5114208;28;20276;-53
2022/04/07 09:20:18;;;;;;;13.37;11.47;;;;;;;15.27;48.53;97977.81;5114109;28;20194;-54
2022/04/07 09:22:56;;;;;;;18.17;11.93;;;;;;;15.09;48.99;97967.88;5129725;27;20194;-52
2022/04/07 09:25:23;;;;;;;20.60;13.03;;;;;;;14.93;49.78;97949.00;5133705;27;20202;-52
2022/04/07 09:27:50;;;;;;;17.50;13.03;;;;;;;14.56;51.24;97948.16;5122068;27;20209;-53
2022/04/07 09:30:17;;;;;;;16.40;11.93;;;;;;;14.59;51.17;97942.69;5126774;27;20284;-53
2022/04/07 09:32:46;;;;;;;14.90;12.60;;;;;;;14.65;51.80;97952.72;5134337;27;20221;-53
2022/04/07 09:35:14;;;;;;;14.70;12.27;;;;;;;14.63;51.26;97949.38;5134664;27;20657;-53
2022/04/07 09:37:41;;;;;;;20.87;12.17;;;;;;;14.64;51.50;97945.84;5134202;27;20186;-52
2022/04/07 09:40:12;;;;;;;17.80;12.80;;;;;;;14.66;52.01;97951.78;5134280;27;20200;-52
2022/04/07 09:42:41;;;;;;;16.37;13.30;;;;;;;14.65;52.18;97971.84;5134097;27;20194;-53
2022/04/07 09:45:12;;;;;;;21.83;12.43;;;;;;;14.71;52.08;97981.00;5134355;27;20202;-53
2022/04/07 09:47:41;;;;;;;16.40;13.43;;;;;;;14.56;52.27;97971.66;5133987;27;20193;-53
2022/04/07 09:50:19;;;;;;;16.13;13.37;;;;;;;14.59;52.64;97989.69;5121713;27;20199;-54
2022/04/07 09:52:56;;;;;;;17.70;13.30;;;;;;;14.61;52.59;97983.44;5113524;27;20214;-52
2022/04/07 09:55:26;;;;;;;19.87;13.07;;;;;;;14.65;52.71;97977.06;5113414;28;20205;-53
2022/04/07 09:57:54;;;;;;;17.87;12.40;;;;;;;14.71;52.76;97975.78;5113361;28;20666;-53
2022/04/07 10:00:21;;;;;;;17.47;13.83;;;;;;;14.76;52.40;97965.88;5113588;28;20194;-52
2022/04/07 10:02:49;;;;;;;15.77;12.93;;;;;;;14.72;52.01;97952.19;5113596;28;20697;-53
2022/04/07 10:05:17;;;;;;;21.53;12.57;;;;;;;14.71;52.38;97945.28;5113351;28;20195;-52
2022/04/07 10:07:44;;;;;;;16.57;13.13;;;;;;;14.94;51.39;97933.22;5113143;28;20201;-53
2022/04/07 10:10:11;;;;;;;27.90;13.40;;;;;;;15.13;50.73;97928.31;5113231;28;20195;-53
2022/04/07 10:12:41;;;;;;;20.77;13.57;;;;;;;15.41;49.97;97908.84;5112862;28;20203;-53
2022/04/07 10:15:08;;;;;;;20.53;13.10;;;;;;;15.51;49.44;97901.16;5112565;28;20210;-53
2022/04/07 10:17:36;;;;;;;15.43;12.37;;;;;;;15.75;48.79;97882.81;5113200;28;20289;-54
2022/04/07 10:20:08;;;;;;;17.33;12.70;;;;;;;15.80;48.18;97885.94;5113415;28;20667;-53
2022/04/07 10:22:56;;;;;;;20.93;13.10;;;;;;;15.44;48.89;97879.88;5123282;27;20293;-53
2022/04/07 10:25:25;;;;;;;21.27;12.17;;;;;;;15.39;48.98;97865.47;5120412;27;20191;-53
2022/04/07 10:27:57;;;;;;;17.47;13.10;;;;;;;15.43;49.05;97861.69;5115977;27;20556;-53
2022/04/07 10:30:24;;;;;;;18.90;13.80;;;;;;;15.56;49.08;97857.25;5119565;27;20194;-54
2022/04/07 10:32:54;;;;;;;21.70;13.30;;;;;;;15.59;49.57;97844.75;5112923;27;20191;-53
2022/04/07 10:35:36;;;;;;;19.50;14.27;;;;;;;15.42;49.74;97842.53;5117114;27;20282;-52
2022/04/07 10:38:04;;;;;;;21.07;13.33;;;;;;;15.65;49.28;97853.94;5128539;27;20197;-52
2022/04/07 10:40:39;;;;;;;16.53;13.83;;;;;;;15.75;48.58;97857.50;5133292;27;20296;-53
2022/04/07 10:43:21;;;;;;;14.90;13.20;;;;;;;15.80;48.39;97855.34;5133248;27;20200;-53
2022/04/07 10:45:53;;;;;;;17.90;13.00;;;;;;;16.01;47.66;97852.91;5126683;27;20722;-52
2022/04/07 10:48:25;;;;;;;16.10;12.90;;;;;;;16.29;47.51;97864.66;5118760;27;20187;-52
2022/04/07 10:50:54;;;;;;;20.47;12.73;;;;;;;16.51;47.13;97877.72;5124061;27;20690;-51
2022/04/07 10:53:24;;;;;;;15.77;12.37;;;;;;;16.65;46.47;97888.00;5132860;27;20222;-51
2022/04/07 10:55:58;;;;;;;15.97;13.37;;;;;;;16.65;46.31;97902.88;5132814;27;20220;-51
2022/04/07 10:58:50;;;;;;;13.70;12.20;;;;;;;16.51;46.44;97901.31;5132484;27;20303;-51
2022/04/07 11:01:32;;;;;;;18.27;12.63;;;;;;;16.28;46.89;97897.84;5132888;27;20268;-53
2022/04/07 11:04:37;;;;;;;16.77;12.47;;;;;;;16.49;47.17;97892.72;5132034;27;20198;-52
2022/04/07 11:07:18;;;;;;;17.93;12.20;;;;;;;16.63;46.79;97876.78;5133030;27;20200;-54
2022/04/07 11:09:50;;;;;;;12.83;11.20;;;;;;;17.01;45.66;97860.63;5132884;27;20250;-54
2022/04/07 11:12:19;;;;;;;12.53;10.37;;;;;;;17.48;44.77;97855.06;5133203;27;20573;-53
2022/04/07 11:14:48;;;;;;;14.87;9.93;;;;;;;17.76;43.34;97846.56;5132363;27;20218;-53
2022/04/07 11:17:23;;;;;;;11.23;9.93;;;;;;;18.06;43.48;97849.19;5132481;27;20202;-53
2022/04/07 11:19:59;;;;;;;13.20;10.87;;;;;;;17.96;43.07;97864.06;5132462;27;20337;-53
2022/04/07 11:22:48;;;;;;;16.57;10.97;;;;;;;17.86;43.11;97854.47;5132203;27;20197;-52
2022/04/07 11:25:16;;;;;;;13.37;11.70;;;;;;;17.82;43.38;97848.69;5131557;27;20187;-52
2022/04/07 11:27:45;;;;;;;20.97;12.07;;;;;;;17.85;43.41;97842.31;5131783;27;20197;-52
2022/04/07 11:30:14;;;;;;;19.90;11.60;;;;;;;17.90;44.29;97854.09;5132473;27;20635;-52